sensor_id;sensor_type;location;lat;lon;timestamp;P1;durP1;ratioP1;P2;durP2;ratioP2
48550;SDS011;34397;51.176;6.738;2022-12-07T00:00:18;24.35;;;15.18;;
48550;SDS011;34397;51.176;6.738;2022-12-07T00:02:51;21.10;;;13.32;;
48550;SDS011;34397;51.176;6.738;2022-12-07T00:05:24;34.55;;;14.23;;
48550;SDS011;34397;51.176;6.738;2022-12-07T00:10:27;20.92;;;14.07;;
48550;SDS011;34397;51.176;6.738;2022-12-07T00:12:59;23.58;;;15.23;;
48550;SDS011;34397;51.176;6.738;2022-12-07T00:15:33;23.10;;;14.65;;
48550;SDS011;34397;51.176;6.738;2022-12-07T00:18:05;24.52;;;14.30;;
48550;SDS011;34397;51.176;6.738;2022-12-07T00:20:38;21.77;;;14.35;;
48550;SDS011;34397;51.176;6.738;2022-12-07T00:25:42;26.35;;;15.65;;
48550;SDS011;34397;51.176;6.738;2022-12-07T00:28:14;23.92;;;14.95;;
48550;SDS011;34397;51.176;6.738;2022-12-07T00:30:46;24.50;;;14.60;;
48550;SDS011;34397;51.176;6.738;2022-12-07T00:33:17;21.15;;;13.55;;
48550;SDS011;34397;51.176;6.738;2022-12-07T00:35:55;22.23;;;14.50;;
48550;SDS011;34397;51.176;6.738;2022-12-07T00:38:28;23.40;;;14.60;;
48550;SDS011;34397;51.176;6.738;2022-12-07T00:41:02;20.08;;;13.93;;
48550;SDS011;34397;51.176;6.738;2022-12-07T00:43:36;27.88;;;14.65;;
48550;SDS011;34397;51.176;6.738;2022-12-07T00:46:08;20.93;;;14.67;;
48550;SDS011;34397;51.176;6.738;2022-12-07T00:48:41;21.55;;;14.57;;
48550;SDS011;34397;51.176;6.738;2022-12-07T00:51:15;20.95;;;13.55;;
48550;SDS011;34397;51.176;6.738;2022-12-07T00:53:49;22.83;;;15.05;;
48550;SDS011;34397;51.176;6.738;2022-12-07T00:56:22;22.45;;;14.65;;
48550;SDS011;34397;51.176;6.738;2022-12-07T00:58:57;23.10;;;14.82;;
48550;SDS011;34397;51.176;6.738;2022-12-07T01:01:31;21.10;;;15.07;;
48550;SDS011;34397;51.176;6.738;2022-12-07T01:04:06;24.65;;;13.23;;
48550;SDS011;34397;51.176;6.738;2022-12-07T01:06:39;21.23;;;14.25;;
48550;SDS011;34397;51.176;6.738;2022-12-07T01:09:11;25.27;;;14.68;;
48550;SDS011;34397;51.176;6.738;2022-12-07T01:11:43;23.33;;;14.27;;
48550;SDS011;34397;51.176;6.738;2022-12-07T01:14:15;19.85;;;13.93;;
48550;SDS011;34397;51.176;6.738;2022-12-07T01:16:46;24.73;;;14.85;;
48550;SDS011;34397;51.176;6.738;2022-12-07T01:19:18;21.25;;;14.35;;
48550;SDS011;34397;51.176;6.738;2022-12-07T01:21:51;23.10;;;14.68;;
48550;SDS011;34397;51.176;6.738;2022-12-07T01:26:55;25.80;;;15.65;;
48550;SDS011;34397;51.176;6.738;2022-12-07T01:29:27;22.35;;;15.82;;
48550;SDS011;34397;51.176;6.738;2022-12-07T01:31:58;23.52;;;14.32;;
48550;SDS011;34397;51.176;6.738;2022-12-07T01:34:30;23.45;;;15.60;;
48550;SDS011;34397;51.176;6.738;2022-12-07T01:37:04;24.52;;;14.88;;
48550;SDS011;34397;51.176;6.738;2022-12-07T01:42:08;21.70;;;14.15;;
48550;SDS011;34397;51.176;6.738;2022-12-07T01:48:08;24.77;;;15.65;;
48550;SDS011;34397;51.176;6.738;2022-12-07T01:50:42;28.75;;;14.80;;
48550;SDS011;34397;51.176;6.738;2022-12-07T01:53:17;24.88;;;16.80;;
48550;SDS011;34397;51.176;6.738;2022-12-07T01:55:50;25.08;;;16.30;;
48550;SDS011;34397;51.176;6.738;2022-12-07T01:58:24;26.90;;;17.90;;
48550;SDS011;34397;51.176;6.738;2022-12-07T02:00:57;23.27;;;15.77;;
48550;SDS011;34397;51.176;6.738;2022-12-07T02:03:30;24.98;;;16.77;;
48550;SDS011;34397;51.176;6.738;2022-12-07T02:06:07;24.15;;;16.20;;
48550;SDS011;34397;51.176;6.738;2022-12-07T02:08:43;26.45;;;16.23;;
48550;SDS011;34397;51.176;6.738;2022-12-07T02:11:15;23.55;;;15.73;;
48550;SDS011;34397;51.176;6.738;2022-12-07T02:13:48;25.13;;;16.65;;
48550;SDS011;34397;51.176;6.738;2022-12-07T02:16:23;22.38;;;15.02;;
48550;SDS011;34397;51.176;6.738;2022-12-07T02:19:13;25.33;;;15.70;;
48550;SDS011;34397;51.176;6.738;2022-12-07T02:22:33;28.15;;;17.02;;
48550;SDS011;34397;51.176;6.738;2022-12-07T02:25:27;22.30;;;14.88;;
48550;SDS011;34397;51.176;6.738;2022-12-07T02:28:13;23.92;;;15.27;;
48550;SDS011;34397;51.176;6.738;2022-12-07T02:31:00;26.23;;;15.95;;
48550;SDS011;34397;51.176;6.738;2022-12-07T02:33:37;22.70;;;15.48;;
48550;SDS011;34397;51.176;6.738;2022-12-07T02:36:15;23.38;;;14.10;;
48550;SDS011;34397;51.176;6.738;2022-12-07T02:41:24;24.88;;;16.15;;
48550;SDS011;34397;51.176;6.738;2022-12-07T02:44:01;25.90;;;15.25;;
48550;SDS011;34397;51.176;6.738;2022-12-07T02:46:39;24.58;;;15.95;;
48550;SDS011;34397;51.176;6.738;2022-12-07T02:49:14;25.70;;;15.70;;
48550;SDS011;34397;51.176;6.738;2022-12-07T02:54:20;23.33;;;14.45;;
48550;SDS011;34397;51.176;6.738;2022-12-07T02:56:53;23.98;;;15.27;;
48550;SDS011;34397;51.176;6.738;2022-12-07T02:59:36;23.48;;;15.13;;
48550;SDS011;34397;51.176;6.738;2022-12-07T03:02:24;24.27;;;14.75;;
48550;SDS011;34397;51.176;6.738;2022-12-07T03:05:06;21.33;;;14.32;;
48550;SDS011;34397;51.176;6.738;2022-12-07T03:07:54;22.55;;;15.30;;
48550;SDS011;34397;51.176;6.738;2022-12-07T03:10:35;24.88;;;15.52;;
48550;SDS011;34397;51.176;6.738;2022-12-07T03:13:17;23.23;;;14.35;;
48550;SDS011;34397;51.176;6.738;2022-12-07T03:15:55;23.95;;;14.77;;
48550;SDS011;34397;51.176;6.738;2022-12-07T03:18:35;26.58;;;15.43;;
48550;SDS011;34397;51.176;6.738;2022-12-07T03:21:13;21.17;;;14.15;;
48550;SDS011;34397;51.176;6.738;2022-12-07T03:23:49;23.60;;;14.63;;
48550;SDS011;34397;51.176;6.738;2022-12-07T03:26:28;24.05;;;14.98;;
48550;SDS011;34397;51.176;6.738;2022-12-07T03:29:04;21.08;;;13.60;;
48550;SDS011;34397;51.176;6.738;2022-12-07T03:31:39;20.33;;;13.50;;
48550;SDS011;34397;51.176;6.738;2022-12-07T03:34:18;20.55;;;13.60;;
48550;SDS011;34397;51.176;6.738;2022-12-07T03:36:58;20.10;;;13.55;;
48550;SDS011;34397;51.176;6.738;2022-12-07T03:39:36;22.35;;;14.02;;
48550;SDS011;34397;51.176;6.738;2022-12-07T03:42:12;21.45;;;14.57;;
48550;SDS011;34397;51.176;6.738;2022-12-07T03:44:44;21.95;;;14.13;;
48550;SDS011;34397;51.176;6.738;2022-12-07T03:47:17;22.80;;;14.80;;
48550;SDS011;34397;51.176;6.738;2022-12-07T03:50:00;19.77;;;13.82;;
48550;SDS011;34397;51.176;6.738;2022-12-07T03:52:39;25.23;;;14.77;;
48550;SDS011;34397;51.176;6.738;2022-12-07T03:55:14;20.88;;;12.77;;
48550;SDS011;34397;51.176;6.738;2022-12-07T03:57:51;23.48;;;13.88;;
48550;SDS011;34397;51.176;6.738;2022-12-07T04:00:28;18.25;;;12.82;;
48550;SDS011;34397;51.176;6.738;2022-12-07T04:03:00;20.88;;;13.75;;
48550;SDS011;34397;51.176;6.738;2022-12-07T04:05:33;19.27;;;12.98;;
48550;SDS011;34397;51.176;6.738;2022-12-07T04:08:05;21.38;;;13.98;;
48550;SDS011;34397;51.176;6.738;2022-12-07T04:10:37;21.20;;;13.05;;
48550;SDS011;34397;51.176;6.738;2022-12-07T04:13:09;21.42;;;13.60;;
48550;SDS011;34397;51.176;6.738;2022-12-07T04:15:41;19.70;;;13.20;;
48550;SDS011;34397;51.176;6.738;2022-12-07T04:18:13;21.38;;;13.35;;
48550;SDS011;34397;51.176;6.738;2022-12-07T04:20:46;20.75;;;14.13;;
48550;SDS011;34397;51.176;6.738;2022-12-07T04:23:18;18.95;;;13.73;;
48550;SDS011;34397;51.176;6.738;2022-12-07T04:25:50;23.23;;;13.55;;
48550;SDS011;34397;51.176;6.738;2022-12-07T04:28:22;19.00;;;13.45;;
48550;SDS011;34397;51.176;6.738;2022-12-07T04:30:53;18.92;;;12.52;;
48550;SDS011;34397;51.176;6.738;2022-12-07T04:33:25;19.42;;;13.57;;
48550;SDS011;34397;51.176;6.738;2022-12-07T04:35:58;19.10;;;12.10;;
48550;SDS011;34397;51.176;6.738;2022-12-07T04:41:04;17.33;;;11.75;;
48550;SDS011;34397;51.176;6.738;2022-12-07T04:43:37;18.92;;;12.48;;
48550;SDS011;34397;51.176;6.738;2022-12-07T04:46:09;21.70;;;12.75;;
48550;SDS011;34397;51.176;6.738;2022-12-07T04:48:40;18.92;;;12.57;;
48550;SDS011;34397;51.176;6.738;2022-12-07T04:51:14;21.50;;;11.98;;
48550;SDS011;34397;51.176;6.738;2022-12-07T04:53:47;16.35;;;10.98;;
48550;SDS011;34397;51.176;6.738;2022-12-07T04:56:19;20.27;;;11.30;;
48550;SDS011;34397;51.176;6.738;2022-12-07T04:58:52;18.20;;;11.50;;
48550;SDS011;34397;51.176;6.738;2022-12-07T05:01:25;16.42;;;11.98;;
48550;SDS011;34397;51.176;6.738;2022-12-07T05:03:57;16.27;;;10.93;;
48550;SDS011;34397;51.176;6.738;2022-12-07T05:06:31;17.35;;;12.05;;
48550;SDS011;34397;51.176;6.738;2022-12-07T05:09:03;15.00;;;11.10;;
48550;SDS011;34397;51.176;6.738;2022-12-07T05:11:35;15.18;;;10.57;;
48550;SDS011;34397;51.176;6.738;2022-12-07T05:14:11;16.52;;;11.10;;
48550;SDS011;34397;51.176;6.738;2022-12-07T05:16:46;17.63;;;10.98;;
48550;SDS011;34397;51.176;6.738;2022-12-07T05:19:20;16.70;;;11.02;;
48550;SDS011;34397;51.176;6.738;2022-12-07T05:21:53;16.27;;;11.18;;
48550;SDS011;34397;51.176;6.738;2022-12-07T05:26:56;17.10;;;10.77;;
48550;SDS011;34397;51.176;6.738;2022-12-07T05:29:28;15.00;;;10.63;;
48550;SDS011;34397;51.176;6.738;2022-12-07T05:32:00;18.40;;;11.02;;
48550;SDS011;34397;51.176;6.738;2022-12-07T05:34:32;17.85;;;10.73;;
48550;SDS011;34397;51.176;6.738;2022-12-07T05:37:05;15.63;;;10.80;;
48550;SDS011;34397;51.176;6.738;2022-12-07T05:42:10;15.27;;;10.73;;
48550;SDS011;34397;51.176;6.738;2022-12-07T05:44:46;16.02;;;10.50;;
48550;SDS011;34397;51.176;6.738;2022-12-07T05:47:18;16.15;;;10.30;;
48550;SDS011;34397;51.176;6.738;2022-12-07T05:49:50;15.90;;;10.23;;
48550;SDS011;34397;51.176;6.738;2022-12-07T05:52:23;15.52;;;10.20;;
48550;SDS011;34397;51.176;6.738;2022-12-07T05:54:55;15.57;;;9.65;;
48550;SDS011;34397;51.176;6.738;2022-12-07T05:57:27;14.90;;;10.27;;
48550;SDS011;34397;51.176;6.738;2022-12-07T05:59:59;17.13;;;10.15;;
48550;SDS011;34397;51.176;6.738;2022-12-07T06:02:30;16.25;;;10.13;;
48550;SDS011;34397;51.176;6.738;2022-12-07T06:05:02;14.80;;;9.25;;
48550;SDS011;34397;51.176;6.738;2022-12-07T06:07:36;14.60;;;9.57;;
48550;SDS011;34397;51.176;6.738;2022-12-07T06:12:41;16.17;;;9.52;;
48550;SDS011;34397;51.176;6.738;2022-12-07T06:15:13;17.52;;;9.25;;
48550;SDS011;34397;51.176;6.738;2022-12-07T06:17:45;18.08;;;10.15;;
48550;SDS011;34397;51.176;6.738;2022-12-07T06:20:17;17.13;;;10.00;;
48550;SDS011;34397;51.176;6.738;2022-12-07T06:22:50;18.88;;;9.38;;
48550;SDS011;34397;51.176;6.738;2022-12-07T06:25:22;15.13;;;9.15;;
48550;SDS011;34397;51.176;6.738;2022-12-07T06:27:54;16.60;;;10.40;;
48550;SDS011;34397;51.176;6.738;2022-12-07T06:30:26;17.58;;;10.05;;
48550;SDS011;34397;51.176;6.738;2022-12-07T06:32:58;16.55;;;10.13;;
48550;SDS011;34397;51.176;6.738;2022-12-07T06:35:31;16.35;;;9.38;;
48550;SDS011;34397;51.176;6.738;2022-12-07T06:38:05;18.00;;;9.73;;
48550;SDS011;34397;51.176;6.738;2022-12-07T06:40:37;14.45;;;8.27;;
48550;SDS011;34397;51.176;6.738;2022-12-07T06:43:09;14.48;;;8.90;;
48550;SDS011;34397;51.176;6.738;2022-12-07T06:45:41;14.77;;;9.55;;
48550;SDS011;34397;51.176;6.738;2022-12-07T06:48:13;12.83;;;8.77;;
48550;SDS011;34397;51.176;6.738;2022-12-07T06:50:45;15.33;;;9.10;;
48550;SDS011;34397;51.176;6.738;2022-12-07T06:53:19;13.48;;;8.93;;
48550;SDS011;34397;51.176;6.738;2022-12-07T06:55:51;15.02;;;9.35;;
48550;SDS011;34397;51.176;6.738;2022-12-07T06:58:23;13.48;;;8.70;;
48550;SDS011;34397;51.176;6.738;2022-12-07T07:00:55;13.95;;;9.05;;
48550;SDS011;34397;51.176;6.738;2022-12-07T07:03:28;16.73;;;9.02;;
48550;SDS011;34397;51.176;6.738;2022-12-07T07:06:00;13.10;;;8.38;;
48550;SDS011;34397;51.176;6.738;2022-12-07T07:08:33;14.35;;;9.20;;
48550;SDS011;34397;51.176;6.738;2022-12-07T07:11:06;12.85;;;8.43;;
48550;SDS011;34397;51.176;6.738;2022-12-07T07:13:39;14.73;;;9.55;;
48550;SDS011;34397;51.176;6.738;2022-12-07T07:16:11;14.90;;;8.63;;
48550;SDS011;34397;51.176;6.738;2022-12-07T07:18:43;17.40;;;8.93;;
48550;SDS011;34397;51.176;6.738;2022-12-07T07:21:15;13.82;;;8.35;;
48550;SDS011;34397;51.176;6.738;2022-12-07T07:23:49;13.88;;;8.55;;
48550;SDS011;34397;51.176;6.738;2022-12-07T07:26:22;14.07;;;7.95;;
48550;SDS011;34397;51.176;6.738;2022-12-07T07:28:53;13.93;;;8.23;;
48550;SDS011;34397;51.176;6.738;2022-12-07T07:31:25;13.02;;;7.90;;
48550;SDS011;34397;51.176;6.738;2022-12-07T07:33:57;12.80;;;8.40;;
48550;SDS011;34397;51.176;6.738;2022-12-07T07:36:29;14.90;;;7.93;;
48550;SDS011;34397;51.176;6.738;2022-12-07T07:39:03;14.00;;;8.37;;
48550;SDS011;34397;51.176;6.738;2022-12-07T07:41:36;13.98;;;8.85;;
48550;SDS011;34397;51.176;6.738;2022-12-07T07:44:08;12.38;;;7.55;;
48550;SDS011;34397;51.176;6.738;2022-12-07T07:46:41;10.85;;;7.38;;
48550;SDS011;34397;51.176;6.738;2022-12-07T07:49:13;13.07;;;8.40;;
48550;SDS011;34397;51.176;6.738;2022-12-07T07:51:45;14.15;;;8.65;;
48550;SDS011;34397;51.176;6.738;2022-12-07T07:54:18;14.00;;;8.18;;
48550;SDS011;34397;51.176;6.738;2022-12-07T07:59:23;11.88;;;7.75;;
48550;SDS011;34397;51.176;6.738;2022-12-07T08:01:55;13.77;;;8.10;;
48550;SDS011;34397;51.176;6.738;2022-12-07T08:04:27;14.63;;;7.43;;
48550;SDS011;34397;51.176;6.738;2022-12-07T08:06:59;11.57;;;7.57;;
48550;SDS011;34397;51.176;6.738;2022-12-07T08:09:32;12.63;;;7.72;;
48550;SDS011;34397;51.176;6.738;2022-12-07T08:14:36;13.38;;;7.82;;
48550;SDS011;34397;51.176;6.738;2022-12-07T08:17:08;12.57;;;7.40;;
48550;SDS011;34397;51.176;6.738;2022-12-07T08:19:40;14.55;;;7.93;;
48550;SDS011;34397;51.176;6.738;2022-12-07T08:22:12;13.18;;;7.68;;
48550;SDS011;34397;51.176;6.738;2022-12-07T08:24:45;12.75;;;7.30;;
48550;SDS011;34397;51.176;6.738;2022-12-07T08:27:17;13.98;;;7.70;;
48550;SDS011;34397;51.176;6.738;2022-12-07T08:29:49;16.02;;;7.57;;
48550;SDS011;34397;51.176;6.738;2022-12-07T08:32:21;14.57;;;8.13;;
48550;SDS011;34397;51.176;6.738;2022-12-07T08:34:53;14.07;;;8.05;;
48550;SDS011;34397;51.176;6.738;2022-12-07T08:37:25;14.70;;;7.88;;
48550;SDS011;34397;51.176;6.738;2022-12-07T08:39:58;15.07;;;7.25;;
48550;SDS011;34397;51.176;6.738;2022-12-07T08:42:30;12.50;;;7.32;;
48550;SDS011;34397;51.176;6.738;2022-12-07T08:45:08;13.13;;;8.20;;
48550;SDS011;34397;51.176;6.738;2022-12-07T08:47:43;14.05;;;8.80;;
48550;SDS011;34397;51.176;6.738;2022-12-07T08:50:21;13.68;;;9.70;;
48550;SDS011;34397;51.176;6.738;2022-12-07T08:52:55;15.15;;;9.88;;
48550;SDS011;34397;51.176;6.738;2022-12-07T08:55:31;14.45;;;8.73;;
48550;SDS011;34397;51.176;6.738;2022-12-07T08:58:04;15.52;;;10.02;;
48550;SDS011;34397;51.176;6.738;2022-12-07T09:00:37;14.80;;;9.60;;
48550;SDS011;34397;51.176;6.738;2022-12-07T09:03:09;14.77;;;9.32;;
48550;SDS011;34397;51.176;6.738;2022-12-07T09:05:41;20.88;;;9.40;;
48550;SDS011;34397;51.176;6.738;2022-12-07T09:08:13;16.13;;;9.47;;
48550;SDS011;34397;51.176;6.738;2022-12-07T09:10:47;13.68;;;8.95;;
48550;SDS011;34397;51.176;6.738;2022-12-07T09:13:19;16.52;;;9.75;;
48550;SDS011;34397;51.176;6.738;2022-12-07T09:15:51;15.32;;;9.63;;
48550;SDS011;34397;51.176;6.738;2022-12-07T09:18:24;15.40;;;9.18;;
48550;SDS011;34397;51.176;6.738;2022-12-07T09:20:56;16.07;;;9.50;;
48550;SDS011;34397;51.176;6.738;2022-12-07T09:23:28;14.93;;;8.98;;
48550;SDS011;34397;51.176;6.738;2022-12-07T09:26:01;15.35;;;9.15;;
48550;SDS011;34397;51.176;6.738;2022-12-07T09:28:35;13.38;;;8.80;;
48550;SDS011;34397;51.176;6.738;2022-12-07T09:31:07;12.38;;;8.32;;
48550;SDS011;34397;51.176;6.738;2022-12-07T09:33:39;16.13;;;8.75;;
48550;SDS011;34397;51.176;6.738;2022-12-07T09:36:11;12.87;;;7.97;;
48550;SDS011;34397;51.176;6.738;2022-12-07T09:38:44;17.38;;;9.25;;
48550;SDS011;34397;51.176;6.738;2022-12-07T09:41:17;17.08;;;8.90;;
48550;SDS011;34397;51.176;6.738;2022-12-07T09:43:51;14.52;;;9.38;;
48550;SDS011;34397;51.176;6.738;2022-12-07T09:46:24;16.45;;;9.48;;
48550;SDS011;34397;51.176;6.738;2022-12-07T09:49:03;17.33;;;9.50;;
48550;SDS011;34397;51.176;6.738;2022-12-07T09:51:36;15.50;;;9.32;;
48550;SDS011;34397;51.176;6.738;2022-12-07T09:54:09;17.08;;;8.82;;
48550;SDS011;34397;51.176;6.738;2022-12-07T09:56:46;19.15;;;8.65;;
48550;SDS011;34397;51.176;6.738;2022-12-07T10:01:50;13.98;;;8.32;;
48550;SDS011;34397;51.176;6.738;2022-12-07T10:04:23;11.85;;;7.90;;
48550;SDS011;34397;51.176;6.738;2022-12-07T10:06:56;12.55;;;7.82;;
48550;SDS011;34397;51.176;6.738;2022-12-07T10:09:28;13.93;;;7.93;;
48550;SDS011;34397;51.176;6.738;2022-12-07T10:12:06;14.13;;;7.75;;
48550;SDS011;34397;51.176;6.738;2022-12-07T10:14:51;14.25;;;7.75;;
48550;SDS011;34397;51.176;6.738;2022-12-07T10:17:28;12.25;;;7.63;;
48550;SDS011;34397;51.176;6.738;2022-12-07T10:20:13;14.02;;;8.30;;
48550;SDS011;34397;51.176;6.738;2022-12-07T10:22:59;12.98;;;7.80;;
48550;SDS011;34397;51.176;6.738;2022-12-07T10:25:35;17.63;;;7.97;;
48550;SDS011;34397;51.176;6.738;2022-12-07T10:28:16;12.98;;;7.57;;
48550;SDS011;34397;51.176;6.738;2022-12-07T10:30:50;13.40;;;7.95;;
48550;SDS011;34397;51.176;6.738;2022-12-07T10:33:29;13.38;;;7.85;;
48550;SDS011;34397;51.176;6.738;2022-12-07T10:36:16;13.25;;;6.80;;
48550;SDS011;34397;51.176;6.738;2022-12-07T10:38:52;12.63;;;6.95;;
48550;SDS011;34397;51.176;6.738;2022-12-07T10:41:29;12.68;;;6.95;;
48550;SDS011;34397;51.176;6.738;2022-12-07T10:44:03;14.50;;;7.43;;
48550;SDS011;34397;51.176;6.738;2022-12-07T10:49:38;14.10;;;7.32;;
48550;SDS011;34397;51.176;6.738;2022-12-07T10:55:33;12.57;;;5.90;;
48550;SDS011;34397;51.176;6.738;2022-12-07T10:58:28;15.18;;;7.32;;
48550;SDS011;34397;51.176;6.738;2022-12-07T11:01:18;13.88;;;7.05;;
48550;SDS011;34397;51.176;6.738;2022-12-07T11:04:15;11.27;;;6.35;;
48550;SDS011;34397;51.176;6.738;2022-12-07T11:06:58;13.35;;;6.90;;
48550;SDS011;34397;51.176;6.738;2022-12-07T11:09:52;13.30;;;6.50;;
48550;SDS011;34397;51.176;6.738;2022-12-07T11:12:40;10.98;;;6.43;;
48550;SDS011;34397;51.176;6.738;2022-12-07T11:15:26;10.95;;;5.97;;
48550;SDS011;34397;51.176;6.738;2022-12-07T11:18:07;12.38;;;7.20;;
48550;SDS011;34397;51.176;6.738;2022-12-07T11:20:46;10.68;;;5.63;;
48550;SDS011;34397;51.176;6.738;2022-12-07T11:23:29;9.07;;;5.30;;
48550;SDS011;34397;51.176;6.738;2022-12-07T11:26:14;10.95;;;5.03;;
48550;SDS011;34397;51.176;6.738;2022-12-07T11:29:01;8.43;;;5.05;;
48550;SDS011;34397;51.176;6.738;2022-12-07T11:31:53;10.15;;;5.50;;
48550;SDS011;34397;51.176;6.738;2022-12-07T11:34:39;10.40;;;4.90;;
48550;SDS011;34397;51.176;6.738;2022-12-07T11:37:25;9.73;;;4.95;;
48550;SDS011;34397;51.176;6.738;2022-12-07T11:40:03;12.40;;;5.72;;
48550;SDS011;34397;51.176;6.738;2022-12-07T11:42:46;11.18;;;5.90;;
48550;SDS011;34397;51.176;6.738;2022-12-07T11:45:25;13.15;;;7.00;;
48550;SDS011;34397;51.176;6.738;2022-12-07T11:48:01;13.20;;;6.00;;
48550;SDS011;34397;51.176;6.738;2022-12-07T11:50:37;12.38;;;6.55;;
48550;SDS011;34397;51.176;6.738;2022-12-07T11:53:14;11.40;;;6.72;;
48550;SDS011;34397;51.176;6.738;2022-12-07T11:55:50;14.20;;;7.57;;
48550;SDS011;34397;51.176;6.738;2022-12-07T11:58:39;14.25;;;7.93;;
48550;SDS011;34397;51.176;6.738;2022-12-07T12:01:24;13.70;;;9.13;;
48550;SDS011;34397;51.176;6.738;2022-12-07T12:04:14;15.93;;;9.05;;
48550;SDS011;34397;51.176;6.738;2022-12-07T12:07:01;13.38;;;8.32;;
48550;SDS011;34397;51.176;6.738;2022-12-07T12:09:40;13.05;;;8.00;;
48550;SDS011;34397;51.176;6.738;2022-12-07T12:12:24;11.95;;;7.50;;
48550;SDS011;34397;51.176;6.738;2022-12-07T12:15:30;13.25;;;8.27;;
48550;SDS011;34397;51.176;6.738;2022-12-07T12:18:26;13.30;;;8.18;;
48550;SDS011;34397;51.176;6.738;2022-12-07T12:21:11;15.02;;;9.00;;
48550;SDS011;34397;51.176;6.738;2022-12-07T12:23:48;12.20;;;7.78;;
48550;SDS011;34397;51.176;6.738;2022-12-07T12:26:27;13.60;;;6.97;;
48550;SDS011;34397;51.176;6.738;2022-12-07T12:29:01;9.40;;;6.10;;
48550;SDS011;34397;51.176;6.738;2022-12-07T12:31:38;14.68;;;7.10;;
48550;SDS011;34397;51.176;6.738;2022-12-07T12:34:31;12.45;;;6.95;;
48550;SDS011;34397;51.176;6.738;2022-12-07T12:49:34;8.70;;;4.03;;
48550;SDS011;34397;51.176;6.738;2022-12-07T12:55:27;6.93;;;2.65;;
48550;SDS011;34397;51.176;6.738;2022-12-07T12:58:29;7.40;;;3.17;;
48550;SDS011;34397;51.176;6.738;2022-12-07T13:04:22;10.80;;;3.92;;
48550;SDS011;34397;51.176;6.738;2022-12-07T13:07:13;10.35;;;3.67;;
48550;SDS011;34397;51.176;6.738;2022-12-07T13:10:32;9.02;;;3.72;;
48550;SDS011;34397;51.176;6.738;2022-12-07T13:13:30;8.90;;;4.30;;
48550;SDS011;34397;51.176;6.738;2022-12-07T13:22:36;8.55;;;4.35;;
48550;SDS011;34397;51.176;6.738;2022-12-07T13:25:30;6.60;;;3.55;;
48550;SDS011;34397;51.176;6.738;2022-12-07T13:28:10;8.82;;;4.10;;
48550;SDS011;34397;51.176;6.738;2022-12-07T13:30:54;9.43;;;4.00;;
48550;SDS011;34397;51.176;6.738;2022-12-07T13:33:42;10.13;;;4.57;;
48550;SDS011;34397;51.176;6.738;2022-12-07T13:36:20;11.85;;;4.15;;
48550;SDS011;34397;51.176;6.738;2022-12-07T13:38:55;9.05;;;4.00;;
48550;SDS011;34397;51.176;6.738;2022-12-07T13:41:29;8.35;;;3.70;;
48550;SDS011;34397;51.176;6.738;2022-12-07T13:44:03;7.18;;;4.10;;
48550;SDS011;34397;51.176;6.738;2022-12-07T13:46:43;8.32;;;3.33;;
48550;SDS011;34397;51.176;6.738;2022-12-07T13:49:23;7.03;;;3.50;;
48550;SDS011;34397;51.176;6.738;2022-12-07T13:52:06;8.77;;;4.10;;
48550;SDS011;34397;51.176;6.738;2022-12-07T13:54:47;5.60;;;3.00;;
48550;SDS011;34397;51.176;6.738;2022-12-07T13:57:26;7.22;;;3.58;;
48550;SDS011;34397;51.176;6.738;2022-12-07T14:00:01;6.35;;;3.30;;
48550;SDS011;34397;51.176;6.738;2022-12-07T14:02:54;8.20;;;3.88;;
48550;SDS011;34397;51.176;6.738;2022-12-07T14:05:29;6.88;;;3.50;;
48550;SDS011;34397;51.176;6.738;2022-12-07T14:08:03;8.88;;;3.85;;
48550;SDS011;34397;51.176;6.738;2022-12-07T14:10:53;6.90;;;3.80;;
48550;SDS011;34397;51.176;6.738;2022-12-07T14:13:29;7.25;;;3.83;;
48550;SDS011;34397;51.176;6.738;2022-12-07T14:16:05;9.48;;;3.10;;
48550;SDS011;34397;51.176;6.738;2022-12-07T14:18:57;7.50;;;3.25;;
48550;SDS011;34397;51.176;6.738;2022-12-07T14:21:31;8.93;;;3.92;;
48550;SDS011;34397;51.176;6.738;2022-12-07T14:24:09;7.55;;;3.80;;
48550;SDS011;34397;51.176;6.738;2022-12-07T14:26:50;8.15;;;3.88;;
48550;SDS011;34397;51.176;6.738;2022-12-07T14:29:29;9.13;;;4.30;;
48550;SDS011;34397;51.176;6.738;2022-12-07T14:35:01;10.98;;;4.03;;
48550;SDS011;34397;51.176;6.738;2022-12-07T14:37:41;7.15;;;3.58;;
48550;SDS011;34397;51.176;6.738;2022-12-07T14:40:16;11.38;;;4.25;;
48550;SDS011;34397;51.176;6.738;2022-12-07T14:42:51;8.38;;;3.95;;
48550;SDS011;34397;51.176;6.738;2022-12-07T14:45:27;8.20;;;3.10;;
48550;SDS011;34397;51.176;6.738;2022-12-07T14:47:59;8.32;;;3.20;;
48550;SDS011;34397;51.176;6.738;2022-12-07T14:50:33;8.30;;;3.78;;
48550;SDS011;34397;51.176;6.738;2022-12-07T14:53:09;9.18;;;3.55;;
48550;SDS011;34397;51.176;6.738;2022-12-07T14:55:45;7.15;;;2.85;;
48550;SDS011;34397;51.176;6.738;2022-12-07T14:58:17;6.40;;;3.13;;
48550;SDS011;34397;51.176;6.738;2022-12-07T15:00:50;7.28;;;3.38;;
48550;SDS011;34397;51.176;6.738;2022-12-07T15:03:22;9.10;;;3.20;;
48550;SDS011;34397;51.176;6.738;2022-12-07T15:05:55;7.28;;;3.20;;
48550;SDS011;34397;51.176;6.738;2022-12-07T15:08:27;10.73;;;4.32;;
48550;SDS011;34397;51.176;6.738;2022-12-07T15:10:59;7.68;;;3.90;;
48550;SDS011;34397;51.176;6.738;2022-12-07T15:13:30;9.48;;;4.60;;
48550;SDS011;34397;51.176;6.738;2022-12-07T15:16:20;10.25;;;4.82;;
48550;SDS011;34397;51.176;6.738;2022-12-07T15:18:52;7.30;;;4.28;;
48550;SDS011;34397;51.176;6.738;2022-12-07T15:21:26;13.35;;;5.10;;
48550;SDS011;34397;51.176;6.738;2022-12-07T15:23:57;8.85;;;5.00;;
48550;SDS011;34397;51.176;6.738;2022-12-07T15:26:29;10.15;;;5.93;;
48550;SDS011;34397;51.176;6.738;2022-12-07T15:29:01;10.13;;;5.25;;
48550;SDS011;34397;51.176;6.738;2022-12-07T15:31:33;8.45;;;4.78;;
48550;SDS011;34397;51.176;6.738;2022-12-07T15:34:06;12.10;;;6.03;;
48550;SDS011;34397;51.176;6.738;2022-12-07T15:36:39;9.45;;;5.18;;
48550;SDS011;34397;51.176;6.738;2022-12-07T15:41:42;10.40;;;4.57;;
48550;SDS011;34397;51.176;6.738;2022-12-07T15:44:15;8.05;;;4.72;;
48550;SDS011;34397;51.176;6.738;2022-12-07T15:47:04;9.65;;;4.78;;
48550;SDS011;34397;51.176;6.738;2022-12-07T15:49:36;9.45;;;4.40;;
48550;SDS011;34397;51.176;6.738;2022-12-07T15:52:10;11.13;;;4.50;;
48550;SDS011;34397;51.176;6.738;2022-12-07T15:54:42;9.27;;;4.25;;
48550;SDS011;34397;51.176;6.738;2022-12-07T15:57:14;10.57;;;4.50;;
48550;SDS011;34397;51.176;6.738;2022-12-07T15:59:46;10.68;;;4.50;;
48550;SDS011;34397;51.176;6.738;2022-12-07T16:02:18;9.18;;;4.82;;
48550;SDS011;34397;51.176;6.738;2022-12-07T16:04:50;9.57;;;4.82;;
48550;SDS011;34397;51.176;6.738;2022-12-07T16:07:24;8.45;;;4.38;;
48550;SDS011;34397;51.176;6.738;2022-12-07T16:12:27;12.05;;;5.55;;
48550;SDS011;34397;51.176;6.738;2022-12-07T16:14:59;10.73;;;4.82;;
48550;SDS011;34397;51.176;6.738;2022-12-07T16:17:31;10.30;;;4.90;;
48550;SDS011;34397;51.176;6.738;2022-12-07T16:20:03;9.18;;;5.60;;
48550;SDS011;34397;51.176;6.738;2022-12-07T16:22:39;11.48;;;5.70;;
48550;SDS011;34397;51.176;6.738;2022-12-07T16:27:43;11.95;;;6.05;;
48550;SDS011;34397;51.176;6.738;2022-12-07T16:30:15;9.43;;;5.75;;
48550;SDS011;34397;51.176;6.738;2022-12-07T16:32:47;9.95;;;5.65;;
48550;SDS011;34397;51.176;6.738;2022-12-07T16:35:18;10.30;;;6.00;;
48550;SDS011;34397;51.176;6.738;2022-12-07T16:37:52;11.15;;;6.25;;
48550;SDS011;34397;51.176;6.738;2022-12-07T16:42:55;9.90;;;6.50;;